sensor_id;sensor_type;location;lat;lon;timestamp;P1;durP1;ratioP1;P2;durP2;ratioP2
52740;SDS011;38634;52.138;9.912;2022-10-15T00:00:13;11.82;;;3.25;;
52740;SDS011;38634;52.138;9.912;2022-10-15T00:02:57;12.52;;;4.03;;
52740;SDS011;38634;52.138;9.912;2022-10-15T00:05:42;11.85;;;3.10;;
52740;SDS011;38634;52.138;9.912;2022-10-15T00:08:27;11.52;;;3.60;;
52740;SDS011;38634;52.138;9.912;2022-10-15T00:11:13;12.63;;;3.58;;
52740;SDS011;38634;52.138;9.912;2022-10-15T00:14:03;12.38;;;3.15;;
52740;SDS011;38634;52.138;9.912;2022-10-15T00:16:47;11.63;;;3.10;;
52740;SDS011;38634;52.138;9.912;2022-10-15T00:19:32;11.88;;;2.85;;
52740;SDS011;38634;52.138;9.912;2022-10-15T00:22:17;9.03;;;2.93;;
52740;SDS011;38634;52.138;9.912;2022-10-15T00:25:01;7.60;;;2.90;;
52740;SDS011;38634;52.138;9.912;2022-10-15T00:27:47;7.60;;;3.00;;
52740;SDS011;38634;52.138;9.912;2022-10-15T00:30:32;8.75;;;3.33;;
52740;SDS011;38634;52.138;9.912;2022-10-15T00:33:17;10.75;;;3.55;;
52740;SDS011;38634;52.138;9.912;2022-10-15T00:36:03;7.97;;;3.42;;
52740;SDS011;38634;52.138;9.912;2022-10-15T00:38:56;8.48;;;3.10;;
52740;SDS011;38634;52.138;9.912;2022-10-15T00:41:41;13.32;;;3.33;;
52740;SDS011;38634;52.138;9.912;2022-10-15T00:53:09;11.57;;;3.20;;
52740;SDS011;38634;52.138;9.912;2022-10-15T00:55:54;11.65;;;2.83;;
52740;SDS011;38634;52.138;9.912;2022-10-15T00:58:39;14.32;;;3.63;;
52740;SDS011;38634;52.138;9.912;2022-10-15T01:01:24;20.83;;;6.03;;
52740;SDS011;38634;52.138;9.912;2022-10-15T01:04:08;10.43;;;3.45;;
52740;SDS011;38634;52.138;9.912;2022-10-15T01:06:53;10.85;;;3.42;;
52740;SDS011;38634;52.138;9.912;2022-10-15T01:09:38;6.53;;;2.50;;
52740;SDS011;38634;52.138;9.912;2022-10-15T01:12:27;7.85;;;2.80;;
52740;SDS011;38634;52.138;9.912;2022-10-15T01:15:59;8.02;;;3.75;;
52740;SDS011;38634;52.138;9.912;2022-10-15T01:28:59;19.02;;;4.07;;
52740;SDS011;38634;52.138;9.912;2022-10-15T01:32:22;17.80;;;3.83;;
52740;SDS011;38634;52.138;9.912;2022-10-15T01:44:32;16.63;;;3.22;;
52740;SDS011;38634;52.138;9.912;2022-10-15T01:47:54;17.67;;;3.70;;
52740;SDS011;38634;52.138;9.912;2022-10-15T01:50:39;17.38;;;4.03;;
52740;SDS011;38634;52.138;9.912;2022-10-15T01:53:36;17.92;;;3.50;;
52740;SDS011;38634;52.138;9.912;2022-10-15T01:56:22;20.35;;;3.75;;
52740;SDS011;38634;52.138;9.912;2022-10-15T01:59:07;19.92;;;3.80;;
52740;SDS011;38634;52.138;9.912;2022-10-15T02:01:52;21.30;;;4.88;;
52740;SDS011;38634;52.138;9.912;2022-10-15T02:04:37;15.25;;;3.17;;
52740;SDS011;38634;52.138;9.912;2022-10-15T02:07:29;17.85;;;3.97;;
52740;SDS011;38634;52.138;9.912;2022-10-15T02:10:35;15.07;;;3.50;;
52740;SDS011;38634;52.138;9.912;2022-10-15T02:13:40;8.38;;;3.00;;
52740;SDS011;38634;52.138;9.912;2022-10-15T02:16:37;16.15;;;3.30;;
52740;SDS011;38634;52.138;9.912;2022-10-15T02:19:31;18.52;;;3.75;;
52740;SDS011;38634;52.138;9.912;2022-10-15T02:23:44;18.92;;;3.70;;
52740;SDS011;38634;52.138;9.912;2022-10-15T02:26:09;19.70;;;3.83;;
52740;SDS011;38634;52.138;9.912;2022-10-15T02:28:55;11.32;;;3.20;;
52740;SDS011;38634;52.138;9.912;2022-10-15T02:31:42;18.15;;;3.40;;
52740;SDS011;38634;52.138;9.912;2022-10-15T02:34:28;15.70;;;3.03;;
52740;SDS011;38634;52.138;9.912;2022-10-15T02:37:13;17.15;;;3.55;;
52740;SDS011;38634;52.138;9.912;2022-10-15T08:54:26;25.33;;;4.70;;
52740;SDS011;38634;52.138;9.912;2022-10-15T09:00:34;15.68;;;4.07;;
52740;SDS011;38634;52.138;9.912;2022-10-15T09:03:50;27.58;;;7.68;;
52740;SDS011;38634;52.138;9.912;2022-10-15T09:06:48;29.23;;;7.40;;
52740;SDS011;38634;52.138;9.912;2022-10-15T09:09:43;32.40;;;8.40;;
52740;SDS011;38634;52.138;9.912;2022-10-15T09:15:36;51.70;;;9.70;;
52740;SDS011;38634;52.138;9.912;2022-10-15T09:18:53;46.67;;;9.63;;
52740;SDS011;38634;52.138;9.912;2022-10-15T09:21:39;18.58;;;5.72;;
52740;SDS011;38634;52.138;9.912;2022-10-15T09:24:27;28.50;;;6.00;;
52740;SDS011;38634;52.138;9.912;2022-10-15T09:30:24;30.25;;;5.72;;
52740;SDS011;38634;52.138;9.912;2022-10-15T09:42:36;53.17;;;8.43;;
52740;SDS011;38634;52.138;9.912;2022-10-15T09:45:22;29.02;;;5.28;;
52740;SDS011;38634;52.138;9.912;2022-10-15T09:48:16;36.00;;;6.03;;
52740;SDS011;38634;52.138;9.912;2022-10-15T09:51:03;61.75;;;11.43;;
52740;SDS011;38634;52.138;9.912;2022-10-15T09:54:02;50.60;;;8.32;;
52740;SDS011;38634;52.138;9.912;2022-10-15T09:57:10;49.75;;;9.02;;
52740;SDS011;38634;52.138;9.912;2022-10-15T09:59:58;43.65;;;8.95;;
52740;SDS011;38634;52.138;9.912;2022-10-15T10:02:44;25.45;;;5.93;;
52740;SDS011;38634;52.138;9.912;2022-10-15T10:06:00;41.88;;;12.27;;
52740;SDS011;38634;52.138;9.912;2022-10-15T10:08:56;26.60;;;7.15;;
52740;SDS011;38634;52.138;9.912;2022-10-15T10:11:52;54.05;;;10.27;;
52740;SDS011;38634;52.138;9.912;2022-10-15T10:14:45;26.80;;;5.82;;
52740;SDS011;38634;52.138;9.912;2022-10-15T10:17:40;34.63;;;6.85;;
52740;SDS011;38634;52.138;9.912;2022-10-15T10:20:36;49.53;;;8.75;;
52740;SDS011;38634;52.138;9.912;2022-10-15T10:23:41;25.98;;;5.22;;
52740;SDS011;38634;52.138;9.912;2022-10-15T10:26:26;53.67;;;9.70;;
52740;SDS011;38634;52.138;9.912;2022-10-15T10:29:11;48.50;;;9.27;;
52740;SDS011;38634;52.138;9.912;2022-10-15T10:32:16;20.30;;;4.28;;
52740;SDS011;38634;52.138;9.912;2022-10-15T10:35:20;20.02;;;4.65;;
52740;SDS011;38634;52.138;9.912;2022-10-15T10:38:16;44.53;;;8.55;;
52740;SDS011;38634;52.138;9.912;2022-10-15T10:41:47;29.90;;;6.47;;
52740;SDS011;38634;52.138;9.912;2022-10-15T10:44:38;11.73;;;3.17;;
52740;SDS011;38634;52.138;9.912;2022-10-15T10:47:24;33.08;;;5.43;;
52740;SDS011;38634;52.138;9.912;2022-10-15T10:50:30;60.40;;;9.15;;
52740;SDS011;38634;52.138;9.912;2022-10-15T10:53:21;53.67;;;8.43;;
52740;SDS011;38634;52.138;9.912;2022-10-15T10:56:07;50.10;;;8.05;;
52740;SDS011;38634;52.138;9.912;2022-10-15T10:58:55;28.35;;;5.47;;
52740;SDS011;38634;52.138;9.912;2022-10-15T11:01:47;38.58;;;7.57;;
52740;SDS011;38634;52.138;9.912;2022-10-15T11:04:32;33.70;;;6.68;;
52740;SDS011;38634;52.138;9.912;2022-10-15T11:07:35;31.08;;;6.28;;
52740;SDS011;38634;52.138;9.912;2022-10-15T11:10:34;27.60;;;5.70;;
52740;SDS011;38634;52.138;9.912;2022-10-15T11:16:33;47.53;;;7.80;;
52740;SDS011;38634;52.138;9.912;2022-10-15T11:19:53;42.72;;;8.32;;
52740;SDS011;38634;52.138;9.912;2022-10-15T11:28:51;51.03;;;9.13;;
52740;SDS011;38634;52.138;9.912;2022-10-15T11:41:36;61.65;;;11.98;;
52740;SDS011;38634;52.138;9.912;2022-10-15T11:47:50;38.45;;;6.60;;
52740;SDS011;38634;52.138;9.912;2022-10-15T11:50:49;54.53;;;9.45;;
52740;SDS011;38634;52.138;9.912;2022-10-15T11:56:48;34.50;;;6.20;;
52740;SDS011;38634;52.138;9.912;2022-10-15T11:59:36;27.73;;;5.35;;
52740;SDS011;38634;52.138;9.912;2022-10-15T12:02:34;49.60;;;8.45;;
52740;SDS011;38634;52.138;9.912;2022-10-15T12:05:41;22.73;;;4.35;;
52740;SDS011;38634;52.138;9.912;2022-10-15T12:08:50;47.00;;;8.27;;
52740;SDS011;38634;52.138;9.912;2022-10-15T12:11:38;22.83;;;4.88;;
52740;SDS011;38634;52.138;9.912;2022-10-15T12:15:06;27.85;;;5.90;;
52740;SDS011;38634;52.138;9.912;2022-10-15T12:18:34;26.17;;;5.50;;
52740;SDS011;38634;52.138;9.912;2022-10-15T12:21:28;58.97;;;12.65;;
52740;SDS011;38634;52.138;9.912;2022-10-15T12:27:34;19.88;;;3.58;;
52740;SDS011;38634;52.138;9.912;2022-10-15T12:30:20;60.15;;;10.82;;
52740;SDS011;38634;52.138;9.912;2022-10-15T12:33:27;44.08;;;8.63;;
52740;SDS011;38634;52.138;9.912;2022-10-15T12:36:29;29.30;;;5.45;;
52740;SDS011;38634;52.138;9.912;2022-10-15T12:39:21;49.55;;;8.90;;
52740;SDS011;38634;52.138;9.912;2022-10-15T12:42:16;25.60;;;5.60;;
52740;SDS011;38634;52.138;9.912;2022-10-15T12:45:23;25.85;;;5.20;;
52740;SDS011;38634;52.138;9.912;2022-10-15T12:48:27;53.53;;;8.48;;
52740;SDS011;38634;52.138;9.912;2022-10-15T12:54:31;56.65;;;9.02;;
52740;SDS011;38634;52.138;9.912;2022-10-15T13:03:26;54.40;;;8.45;;
52740;SDS011;38634;52.138;9.912;2022-10-15T13:06:33;25.02;;;5.43;;
52740;SDS011;38634;52.138;9.912;2022-10-15T13:09:27;39.28;;;6.93;;
52740;SDS011;38634;52.138;9.912;2022-10-15T13:12:20;36.63;;;6.90;;
52740;SDS011;38634;52.138;9.912;2022-10-15T13:15:09;45.10;;;8.93;;
52740;SDS011;38634;52.138;9.912;2022-10-15T13:17:58;44.72;;;8.32;;
52740;SDS011;38634;52.138;9.912;2022-10-15T13:20:48;24.08;;;4.63;;
52740;SDS011;38634;52.138;9.912;2022-10-15T13:23:34;49.65;;;8.68;;
52740;SDS011;38634;52.138;9.912;2022-10-15T13:26:28;68.75;;;10.18;;
52740;SDS011;38634;52.138;9.912;2022-10-15T13:29:15;34.90;;;5.78;;
52740;SDS011;38634;52.138;9.912;2022-10-15T13:32:02;62.65;;;9.27;;
52740;SDS011;38634;52.138;9.912;2022-10-15T13:34:50;44.42;;;6.95;;
52740;SDS011;38634;52.138;9.912;2022-10-15T13:37:36;34.30;;;5.68;;
52740;SDS011;38634;52.138;9.912;2022-10-15T13:40:24;56.85;;;8.85;;
52740;SDS011;38634;52.138;9.912;2022-10-15T13:43:18;63.20;;;9.57;;
52740;SDS011;38634;52.138;9.912;2022-10-15T13:46:09;33.78;;;6.10;;
52740;SDS011;38634;52.138;9.912;2022-10-15T13:48:59;62.90;;;9.35;;
52740;SDS011;38634;52.138;9.912;2022-10-15T13:51:47;27.95;;;5.57;;
52740;SDS011;38634;52.138;9.912;2022-10-15T13:54:33;46.50;;;8.25;;
52740;SDS011;38634;52.138;9.912;2022-10-15T13:57:18;70.03;;;10.00;;
52740;SDS011;38634;52.138;9.912;2022-10-15T14:00:03;72.80;;;10.20;;
52740;SDS011;38634;52.138;9.912;2022-10-15T14:09:17;32.85;;;5.95;;
52740;SDS011;38634;52.138;9.912;2022-10-15T14:12:07;70.07;;;9.73;;
52740;SDS011;38634;52.138;9.912;2022-10-15T14:14:54;32.05;;;5.57;;
52740;SDS011;38634;52.138;9.912;2022-10-15T14:17:38;36.08;;;6.57;;
52740;SDS011;38634;52.138;9.912;2022-10-15T14:20:23;45.80;;;7.75;;
52740;SDS011;38634;52.138;9.912;2022-10-15T14:23:13;59.40;;;8.80;;
52740;SDS011;38634;52.138;9.912;2022-10-15T14:26:06;29.85;;;5.13;;
52740;SDS011;38634;52.138;9.912;2022-10-15T14:28:53;72.28;;;10.85;;
52740;SDS011;38634;52.138;9.912;2022-10-15T14:31:39;59.67;;;8.80;;
52740;SDS011;38634;52.138;9.912;2022-10-15T14:40:24;35.20;;;6.00;;
52740;SDS011;38634;52.138;9.912;2022-10-15T14:43:13;65.28;;;9.35;;
52740;SDS011;38634;52.138;9.912;2022-10-15T14:46:00;38.25;;;6.45;;
52740;SDS011;38634;52.138;9.912;2022-10-15T14:48:49;37.00;;;6.13;;
52740;SDS011;38634;52.138;9.912;2022-10-15T14:51:34;62.30;;;9.90;;
52740;SDS011;38634;52.138;9.912;2022-10-15T14:54:20;71.93;;;10.50;;
52740;SDS011;38634;52.138;9.912;2022-10-15T14:57:15;38.20;;;6.07;;
52740;SDS011;38634;52.138;9.912;2022-10-15T15:00:12;63.15;;;9.90;;
52740;SDS011;38634;52.138;9.912;2022-10-15T15:03:18;52.47;;;8.27;;
52740;SDS011;38634;52.138;9.912;2022-10-15T15:06:07;28.10;;;5.13;;
52740;SDS011;38634;52.138;9.912;2022-10-15T15:08:53;48.08;;;7.43;;
52740;SDS011;38634;52.138;9.912;2022-10-15T15:11:38;65.32;;;10.50;;
52740;SDS011;38634;52.138;9.912;2022-10-15T15:14:23;50.20;;;8.52;;
52740;SDS011;38634;52.138;9.912;2022-10-15T15:17:11;24.42;;;4.50;;
52740;SDS011;38634;52.138;9.912;2022-10-15T15:19:59;59.20;;;9.68;;
52740;SDS011;38634;52.138;9.912;2022-10-15T15:22:44;65.93;;;10.23;;
52740;SDS011;38634;52.138;9.912;2022-10-15T15:25:34;24.70;;;4.85;;
52740;SDS011;38634;52.138;9.912;2022-10-15T15:28:20;34.85;;;5.90;;
52740;SDS011;38634;52.138;9.912;2022-10-15T15:31:13;84.72;;;12.50;;
52740;SDS011;38634;52.138;9.912;2022-10-15T15:34:00;33.15;;;5.53;;
52740;SDS011;38634;52.138;9.912;2022-10-15T15:36:44;41.85;;;7.15;;
52740;SDS011;38634;52.138;9.912;2022-10-15T15:39:29;70.55;;;10.45;;
52740;SDS011;38634;52.138;9.912;2022-10-15T15:42:15;61.83;;;9.57;;
52740;SDS011;38634;52.138;9.912;2022-10-15T15:45:03;25.20;;;4.88;;
52740;SDS011;38634;52.138;9.912;2022-10-15T15:47:47;28.23;;;5.55;;
52740;SDS011;38634;52.138;9.912;2022-10-15T15:50:33;52.65;;;9.07;;
52740;SDS011;38634;52.138;9.912;2022-10-15T15:53:18;43.75;;;7.60;;
52740;SDS011;38634;52.138;9.912;2022-10-15T15:56:03;37.35;;;7.47;;
52740;SDS011;38634;52.138;9.912;2022-10-15T15:58:48;29.20;;;5.47;;
52740;SDS011;38634;52.138;9.912;2022-10-15T16:01:33;40.83;;;8.27;;
52740;SDS011;38634;52.138;9.912;2022-10-15T16:04:18;56.60;;;9.70;;
52740;SDS011;38634;52.138;9.912;2022-10-15T16:07:03;50.33;;;9.27;;
52740;SDS011;38634;52.138;9.912;2022-10-15T16:09:48;28.20;;;5.78;;
52740;SDS011;38634;52.138;9.912;2022-10-15T16:12:32;27.42;;;5.60;;
52740;SDS011;38634;52.138;9.912;2022-10-15T16:15:18;51.50;;;8.55;;
52740;SDS011;38634;52.138;9.912;2022-10-15T16:18:02;48.22;;;8.07;;
52740;SDS011;38634;52.138;9.912;2022-10-15T16:20:47;49.60;;;8.73;;
52740;SDS011;38634;52.138;9.912;2022-10-15T16:23:32;28.08;;;5.68;;
52740;SDS011;38634;52.138;9.912;2022-10-15T16:26:17;31.20;;;5.78;;
52740;SDS011;38634;52.138;9.912;2022-10-15T16:29:02;53.42;;;8.57;;
52740;SDS011;38634;52.138;9.912;2022-10-15T16:31:47;53.97;;;9.48;;
52740;SDS011;38634;52.138;9.912;2022-10-15T16:34:31;36.55;;;7.10;;
52740;SDS011;38634;52.138;9.912;2022-10-15T16:37:16;24.45;;;4.90;;
52740;SDS011;38634;52.138;9.912;2022-10-15T16:40:01;31.63;;;5.60;;
52740;SDS011;38634;52.138;9.912;2022-10-15T16:42:46;57.35;;;9.98;;
52740;SDS011;38634;52.138;9.912;2022-10-15T16:45:31;40.97;;;8.48;;
52740;SDS011;38634;52.138;9.912;2022-10-15T16:48:15;17.65;;;3.80;;
52740;SDS011;38634;52.138;9.912;2022-10-15T16:51:04;26.98;;;6.10;;
52740;SDS011;38634;52.138;9.912;2022-10-15T16:53:53;48.67;;;8.93;;
52740;SDS011;38634;52.138;9.912;2022-10-15T16:56:38;30.90;;;6.10;;
52740;SDS011;38634;52.138;9.912;2022-10-15T16:59:22;28.42;;;6.20;;
52740;SDS011;38634;52.138;9.912;2022-10-15T17:02:07;30.02;;;6.05;;
52740;SDS011;38634;52.138;9.912;2022-10-15T17:04:52;53.25;;;9.07;;
52740;SDS011;38634;52.138;9.912;2022-10-15T17:07:37;46.97;;;8.57;;
52740;SDS011;38634;52.138;9.912;2022-10-15T17:10:21;28.90;;;6.30;;
52740;SDS011;38634;52.138;9.912;2022-10-15T17:13:08;20.90;;;4.82;;
52740;SDS011;38634;52.138;9.912;2022-10-15T17:15:53;37.20;;;6.60;;
52740;SDS011;38634;52.138;9.912;2022-10-15T17:18:38;51.63;;;9.60;;
52740;SDS011;38634;52.138;9.912;2022-10-15T17:21:23;37.08;;;8.45;;
52740;SDS011;38634;52.138;9.912;2022-10-15T17:24:16;24.05;;;5.40;;
52740;SDS011;38634;52.138;9.912;2022-10-15T17:27:02;31.92;;;6.38;;
52740;SDS011;38634;52.138;9.912;2022-10-15T17:29:46;25.38;;;4.47;;
52740;SDS011;38634;52.138;9.912;2022-10-15T17:32:31;22.90;;;3.92;;
52740;SDS011;38634;52.138;9.912;2022-10-15T17:35:16;26.58;;;4.82;;
52740;SDS011;38634;52.138;9.912;2022-10-15T17:38:00;19.17;;;3.75;;
52740;SDS011;38634;52.138;9.912;2022-10-15T17:40:45;21.60;;;4.25;;
52740;SDS011;38634;52.138;9.912;2022-10-15T17:43:29;18.98;;;3.75;;
52740;SDS011;38634;52.138;9.912;2022-10-15T17:46:16;13.45;;;3.75;;
52740;SDS011;38634;52.138;9.912;2022-10-15T17:49:03;19.30;;;3.67;;
52740;SDS011;38634;52.138;9.912;2022-10-15T17:51:48;20.77;;;3.95;;
52740;SDS011;38634;52.138;9.912;2022-10-15T17:54:34;15.30;;;3.58;;
52740;SDS011;38634;52.138;9.912;2022-10-15T17:57:18;20.42;;;3.85;;
52740;SDS011;38634;52.138;9.912;2022-10-15T18:00:03;20.65;;;4.00;;
52740;SDS011;38634;52.138;9.912;2022-10-15T18:02:50;19.67;;;3.75;;
52740;SDS011;38634;52.138;9.912;2022-10-15T18:05:35;13.85;;;2.90;;
52740;SDS011;38634;52.138;9.912;2022-10-15T18:08:19;17.15;;;3.67;;
52740;SDS011;38634;52.138;9.912;2022-10-15T18:11:04;22.50;;;6.93;;
52740;SDS011;38634;52.138;9.912;2022-10-15T18:13:50;19.60;;;5.40;;
52740;SDS011;38634;52.138;9.912;2022-10-15T18:16:34;11.35;;;3.70;;
52740;SDS011;38634;52.138;9.912;2022-10-15T18:19:19;20.83;;;4.65;;
52740;SDS011;38634;52.138;9.912;2022-10-15T18:22:04;18.45;;;4.53;;
52740;SDS011;38634;52.138;9.912;2022-10-15T18:24:48;17.35;;;3.88;;
52740;SDS011;38634;52.138;9.912;2022-10-15T18:27:33;19.08;;;3.78;;
52740;SDS011;38634;52.138;9.912;2022-10-15T18:30:18;21.48;;;3.83;;
52740;SDS011;38634;52.138;9.912;2022-10-15T18:33:03;21.25;;;4.20;;
52740;SDS011;38634;52.138;9.912;2022-10-15T18:35:49;20.13;;;3.90;;
52740;SDS011;38634;52.138;9.912;2022-10-15T18:38:35;17.88;;;3.47;;
52740;SDS011;38634;52.138;9.912;2022-10-15T18:44:11;19.30;;;3.67;;
52740;SDS011;38634;52.138;9.912;2022-10-15T18:46:59;19.52;;;3.50;;
52740;SDS011;38634;52.138;9.912;2022-10-15T18:49:44;18.25;;;3.60;;
52740;SDS011;38634;52.138;9.912;2022-10-15T18:52:28;18.98;;;6.53;;
52740;SDS011;38634;52.138;9.912;2022-10-15T18:55:14;19.63;;;5.70;;
52740;SDS011;38634;52.138;9.912;2022-10-15T18:57:59;24.08;;;5.00;;
52740;SDS011;38634;52.138;9.912;2022-10-15T19:00:44;16.50;;;4.57;;
52740;SDS011;38634;52.138;9.912;2022-10-15T19:03:29;14.63;;;3.67;;
52740;SDS011;38634;52.138;9.912;2022-10-15T19:06:13;18.80;;;4.10;;
52740;SDS011;38634;52.138;9.912;2022-10-15T19:08:58;18.30;;;4.60;;
52740;SDS011;38634;52.138;9.912;2022-10-15T19:11:45;17.23;;;4.28;;
52740;SDS011;38634;52.138;9.912;2022-10-15T19:14:32;18.77;;;3.92;;
52740;SDS011;38634;52.138;9.912;2022-10-15T19:17:16;20.92;;;4.25;;
52740;SDS011;38634;52.138;9.912;2022-10-15T19:20:01;13.77;;;3.97;;
52740;SDS011;38634;52.138;9.912;2022-10-15T19:22:46;15.85;;;3.72;;
52740;SDS011;38634;52.138;9.912;2022-10-15T19:25:30;19.90;;;4.03;;
52740;SDS011;38634;52.138;9.912;2022-10-15T19:28:15;13.95;;;2.90;;
52740;SDS011;38634;52.138;9.912;2022-10-15T19:31:01;15.43;;;3.70;;
52740;SDS011;38634;52.138;9.912;2022-10-15T19:33:48;10.27;;;3.28;;
52740;SDS011;38634;52.138;9.912;2022-10-15T19:36:34;16.17;;;3.65;;
52740;SDS011;38634;52.138;9.912;2022-10-15T19:39:24;18.50;;;3.80;;
52740;SDS011;38634;52.138;9.912;2022-10-15T19:42:09;19.95;;;3.88;;
52740;SDS011;38634;52.138;9.912;2022-10-15T19:44:54;16.67;;;3.80;;
52740;SDS011;38634;52.138;9.912;2022-10-15T19:47:38;16.00;;;3.78;;
52740;SDS011;38634;52.138;9.912;2022-10-15T19:50:23;7.85;;;2.95;;
52740;SDS011;38634;52.138;9.912;2022-10-15T19:53:08;20.73;;;4.00;;
52740;SDS011;38634;52.138;9.912;2022-10-15T19:55:56;19.75;;;4.05;;
52740;SDS011;38634;52.138;9.912;2022-10-15T19:58:43;19.08;;;3.60;;
52740;SDS011;38634;52.138;9.912;2022-10-15T20:01:27;17.80;;;5.43;;
52740;SDS011;38634;52.138;9.912;2022-10-15T20:04:13;15.63;;;3.22;;
52740;SDS011;38634;52.138;9.912;2022-10-15T20:06:57;15.10;;;3.28;;
52740;SDS011;38634;52.138;9.912;2022-10-15T20:09:42;10.95;;;3.53;;
52740;SDS011;38634;52.138;9.912;2022-10-15T20:12:27;11.88;;;2.85;;
52740;SDS011;38634;52.138;9.912;2022-10-15T20:15:11;11.23;;;3.35;;
52740;SDS011;38634;52.138;9.912;2022-10-15T20:17:56;11.27;;;6.22;;
52740;SDS011;38634;52.138;9.912;2022-10-15T20:20:42;22.52;;;6.88;;
52740;SDS011;38634;52.138;9.912;2022-10-15T20:23:28;19.10;;;4.72;;
52740;SDS011;38634;52.138;9.912;2022-10-15T20:26:13;20.08;;;5.00;;
52740;SDS011;38634;52.138;9.912;2022-10-15T20:28:59;21.80;;;6.07;;
52740;SDS011;38634;52.138;9.912;2022-10-15T20:31:43;15.50;;;3.63;;
52740;SDS011;38634;52.138;9.912;2022-10-15T20:34:31;13.57;;;3.47;;
52740;SDS011;38634;52.138;9.912;2022-10-15T20:37:15;21.88;;;5.15;;
52740;SDS011;38634;52.138;9.912;2022-10-15T20:40:00;21.42;;;3.85;;
52740;SDS011;38634;52.138;9.912;2022-10-15T20:42:45;14.65;;;3.17;;
52740;SDS011;38634;52.138;9.912;2022-10-15T20:45:30;15.52;;;2.97;;
52740;SDS011;38634;52.138;9.912;2022-10-15T20:48:19;13.45;;;3.53;;
52740;SDS011;38634;52.138;9.912;2022-10-15T20:51:06;17.45;;;3.83;;
52740;SDS011;38634;52.138;9.912;2022-10-15T20:53:52;18.90;;;3.80;;
52740;SDS011;38634;52.138;9.912;2022-10-15T20:56:37;16.35;;;3.40;;
52740;SDS011;38634;52.138;9.912;2022-10-15T20:59:22;17.27;;;3.40;;
52740;SDS011;38634;52.138;9.912;2022-10-15T21:02:06;17.75;;;3.45;;
52740;SDS011;38634;52.138;9.912;2022-10-15T21:04:51;14.00;;;3.30;;
52740;SDS011;38634;52.138;9.912;2022-10-15T21:07:36;12.13;;;3.03;;
52740;SDS011;38634;52.138;9.912;2022-10-15T21:10:21;13.15;;;3.40;;
52740;SDS011;38634;52.138;9.912;2022-10-15T21:13:05;22.58;;;4.30;;
52740;SDS011;38634;52.138;9.912;2022-10-15T21:15:55;18.50;;;4.03;;
52740;SDS011;38634;52.138;9.912;2022-10-15T21:18:41;19.65;;;4.75;;
52740;SDS011;38634;52.138;9.912;2022-10-15T21:21:26;29.92;;;7.22;;
52740;SDS011;38634;52.138;9.912;2022-10-15T21:24:11;14.02;;;3.33;;
52740;SDS011;38634;52.138;9.912;2022-10-15T21:26:57;21.02;;;4.10;;
52740;SDS011;38634;52.138;9.912;2022-10-15T21:29:41;20.58;;;4.03;;
52740;SDS011;38634;52.138;9.912;2022-10-15T21:32:27;17.60;;;3.60;;
52740;SDS011;38634;52.138;9.912;2022-10-15T21:35:12;15.38;;;3.67;;
52740;SDS011;38634;52.138;9.912;2022-10-15T21:37:57;31.02;;;7.53;;
52740;SDS011;38634;52.138;9.912;2022-10-15T21:40:41;20.10;;;3.75;;
52740;SDS011;38634;52.138;9.912;2022-10-15T21:43:27;21.85;;;3.92;;
52740;SDS011;38634;52.138;9.912;2022-10-15T21:46:12;22.95;;;4.60;;
52740;SDS011;38634;52.138;9.912;2022-10-15T21:48:58;20.80;;;3.95;;
52740;SDS011;38634;52.138;9.912;2022-10-15T21:51:44;23.05;;;4.40;;
52740;SDS011;38634;52.138;9.912;2022-10-15T21:54:28;24.48;;;4.13;;
52740;SDS011;38634;52.138;9.912;2022-10-15T21:57:13;21.20;;;3.75;;
52740;SDS011;38634;52.138;9.912;2022-10-15T21:59:58;24.52;;;4.32;;
52740;SDS011;38634;52.138;9.912;2022-10-15T22:02:42;25.48;;;4.38;;
52740;SDS011;38634;52.138;9.912;2022-10-15T22:05:31;26.77;;;4.47;;
52740;SDS011;38634;52.138;9.912;2022-10-15T22:08:15;23.63;;;3.78;;
52740;SDS011;38634;52.138;9.912;2022-10-15T22:11:07;21.90;;;4.47;;
52740;SDS011;38634;52.138;9.912;2022-10-15T22:13:56;20.05;;;3.85;;
52740;SDS011;38634;52.138;9.912;2022-10-15T22:16:42;21.15;;;4.10;;
52740;SDS011;38634;52.138;9.912;2022-10-15T22:19:30;23.30;;;4.05;;
52740;SDS011;38634;52.138;9.912;2022-10-15T22:22:14;22.95;;;4.10;;
52740;SDS011;38634;52.138;9.912;2022-10-15T22:24:59;24.00;;;4.45;;
52740;SDS011;38634;52.138;9.912;2022-10-15T22:27:44;18.88;;;3.40;;
52740;SDS011;38634;52.138;9.912;2022-10-15T22:30:33;22.50;;;3.80;;
52740;SDS011;38634;52.138;9.912;2022-10-15T22:33:18;20.75;;;4.05;;
52740;SDS011;38634;52.138;9.912;2022-10-15T22:36:04;17.33;;;3.42;;
52740;SDS011;38634;52.138;9.912;2022-10-15T22:38:58;16.48;;;3.70;;
52740;SDS011;38634;52.138;9.912;2022-10-15T22:41:47;21.10;;;3.90;;
52740;SDS011;38634;52.138;9.912;2022-10-15T22:44:32;20.20;;;3.92;;
52740;SDS011;38634;52.138;9.912;2022-10-15T22:47:18;23.02;;;3.95;;
52740;SDS011;38634;52.138;9.912;2022-10-15T22:50:04;23.30;;;4.10;;
52740;SDS011;38634;52.138;9.912;2022-10-15T22:52:51;24.75;;;4.55;;
52740;SDS011;38634;52.138;9.912;2022-10-15T22:55:35;16.90;;;3.40;;
52740;SDS011;38634;52.138;9.912;2022-10-15T22:58:21;11.32;;;2.70;;
52740;SDS011;38634;52.138;9.912;2022-10-15T23:04:14;11.25;;;3.15;;
52740;SDS011;38634;52.138;9.912;2022-10-15T23:06:59;11.25;;;3.45;;
52740;SDS011;38634;52.138;9.912;2022-10-15T23:09:47;8.95;;;2.78;;
52740;SDS011;38634;52.138;9.912;2022-10-15T23:12:31;9.52;;;2.85;;
52740;SDS011;38634;52.138;9.912;2022-10-15T23:15:20;11.52;;;3.40;;
52740;SDS011;38634;52.138;9.912;2022-10-15T23:18:07;16.42;;;3.28;;
52740;SDS011;38634;52.138;9.912;2022-10-15T23:20:53;19.08;;;3.88;;
52740;SDS011;38634;52.138;9.912;2022-10-15T23:23:41;10.73;;;3.42;;
52740;SDS011;38634;52.138;9.912;2022-10-15T23:26:27;20.42;;;3.83;;
52740;SDS011;38634;52.138;9.912;2022-10-15T23:29:14;20.45;;;3.83;;
52740;SDS011;38634;52.138;9.912;2022-10-15T23:32:03;15.82;;;3.13;;
52740;SDS011;38634;52.138;9.912;2022-10-15T23:34:51;12.95;;;2.90;;
52740;SDS011;38634;52.138;9.912;2022-10-15T23:37:40;8.10;;;2.50;;
52740;SDS011;38634;52.138;9.912;2022-10-15T23:40:25;6.25;;;2.40;;
52740;SDS011;38634;52.138;9.912;2022-10-15T23:43:09;6.28;;;2.60;;
52740;SDS011;38634;52.138;9.912;2022-10-15T23:45:54;4.78;;;1.83;;
52740;SDS011;38634;52.138;9.912;2022-10-15T23:48:39;7.15;;;2.30;;
52740;SDS011;38634;52.138;9.912;2022-10-15T23:51:25;9.07;;;3.70;;
52740;SDS011;38634;52.138;9.912;2022-10-15T23:54:13;7.65;;;2.35;;
52740;SDS011;38634;52.138;9.912;2022-10-15T23:57:00;11.32;;;3.33;;
52740;SDS011;38634;52.138;9.912;2022-10-15T23:59:44;9.98;;;3.13;;
